sensor_id;sensor_type;location;lat;lon;timestamp;temperature;humidity
65985;HTU21D;52748;51.112;5.880;2023-03-03T00:02:37;18.06;51.53
65985;HTU21D;52748;51.112;5.880;2023-03-03T00:05:04;18.05;51.42
65985;HTU21D;52748;51.112;5.880;2023-03-03T00:07:30;18.03;51.42
65985;HTU21D;52748;51.112;5.880;2023-03-03T00:09:56;18.03;51.44
65985;HTU21D;52748;51.112;5.880;2023-03-03T00:12:23;18.03;51.46
65985;HTU21D;52748;51.112;5.880;2023-03-03T00:14:50;18.06;51.40
65985;HTU21D;52748;51.112;5.880;2023-03-03T00:17:22;18.04;51.33
65985;HTU21D;52748;51.112;5.880;2023-03-03T00:19:49;18.03;51.36
65985;HTU21D;52748;51.112;5.880;2023-03-03T00:22:29;18.02;51.41
65985;HTU21D;52748;51.112;5.880;2023-03-03T00:25:00;18.00;51.44
65985;HTU21D;52748;51.112;5.880;2023-03-03T00:27:38;17.99;51.48
65985;HTU21D;52748;51.112;5.880;2023-03-03T00:30:22;17.98;51.49
65985;HTU21D;52748;51.112;5.880;2023-03-03T00:32:50;17.96;51.47
65985;HTU21D;52748;51.112;5.880;2023-03-03T00:35:29;17.96;51.48
65985;HTU21D;52748;51.112;5.880;2023-03-03T00:38:09;17.99;51.39
65985;HTU21D;52748;51.112;5.880;2023-03-03T00:40:37;17.99;51.28
65985;HTU21D;52748;51.112;5.880;2023-03-03T00:43:32;17.96;51.30
65985;HTU21D;52748;51.112;5.880;2023-03-03T00:45:59;17.95;51.32
65985;HTU21D;52748;51.112;5.880;2023-03-03T00:48:38;17.94;51.33
65985;HTU21D;52748;51.112;5.880;2023-03-03T00:51:30;17.93;51.33
65985;HTU21D;52748;51.112;5.880;2023-03-03T00:53:59;17.91;51.33
65985;HTU21D;52748;51.112;5.880;2023-03-03T00:56:25;17.92;51.37
65985;HTU21D;52748;51.112;5.880;2023-03-03T00:58:52;17.91;51.35
65985;HTU21D;52748;51.112;5.880;2023-03-03T01:01:20;17.90;51.34
65985;HTU21D;52748;51.112;5.880;2023-03-03T01:03:50;17.90;51.33
65985;HTU21D;52748;51.112;5.880;2023-03-03T01:06:16;17.89;51.33
65985;HTU21D;52748;51.112;5.880;2023-03-03T01:08:42;17.90;51.28
65985;HTU21D;52748;51.112;5.880;2023-03-03T01:11:12;17.88;51.27
65985;HTU21D;52748;51.112;5.880;2023-03-03T01:13:43;17.88;51.28
65985;HTU21D;52748;51.112;5.880;2023-03-03T01:16:09;17.88;51.24
65985;HTU21D;52748;51.112;5.880;2023-03-03T01:18:36;17.87;51.27
65985;HTU21D;52748;51.112;5.880;2023-03-03T01:21:02;17.87;51.26
65985;HTU21D;52748;51.112;5.880;2023-03-03T01:23:28;17.87;51.23
65985;HTU21D;52748;51.112;5.880;2023-03-03T01:25:54;17.84;51.24
65985;HTU21D;52748;51.112;5.880;2023-03-03T01:28:20;17.83;51.21
65985;HTU21D;52748;51.112;5.880;2023-03-03T01:30:46;17.84;51.14
65985;HTU21D;52748;51.112;5.880;2023-03-03T01:33:12;17.83;51.14
65985;HTU21D;52748;51.112;5.880;2023-03-03T01:35:45;17.83;51.06
65985;HTU21D;52748;51.112;5.880;2023-03-03T01:38:13;17.82;51.04
65985;HTU21D;52748;51.112;5.880;2023-03-03T01:40:39;17.81;51.04
65985;HTU21D;52748;51.112;5.880;2023-03-03T01:43:05;17.81;50.99
65985;HTU21D;52748;51.112;5.880;2023-03-03T01:53:41;17.80;50.98
65985;HTU21D;52748;51.112;5.880;2023-03-03T01:56:08;17.78;51.01
65985;HTU21D;52748;51.112;5.880;2023-03-03T01:58:46;17.77;50.95
65985;HTU21D;52748;51.112;5.880;2023-03-03T02:01:19;17.77;50.92
65985;HTU21D;52748;51.112;5.880;2023-03-03T02:03:47;17.76;50.89
65985;HTU21D;52748;51.112;5.880;2023-03-03T02:06:15;17.75;50.90
65985;HTU21D;52748;51.112;5.880;2023-03-03T02:08:59;17.75;50.92
65985;HTU21D;52748;51.112;5.880;2023-03-03T02:11:30;17.75;50.93
65985;HTU21D;52748;51.112;5.880;2023-03-03T02:13:58;17.76;50.92
65985;HTU21D;52748;51.112;5.880;2023-03-03T02:16:24;17.74;50.95
65985;HTU21D;52748;51.112;5.880;2023-03-03T02:18:50;17.74;50.96
65985;HTU21D;52748;51.112;5.880;2023-03-03T02:21:22;17.73;50.95
65985;HTU21D;52748;51.112;5.880;2023-03-03T02:24:02;17.73;50.93
65985;HTU21D;52748;51.112;5.880;2023-03-03T02:26:34;17.74;50.85
65985;HTU21D;52748;51.112;5.880;2023-03-03T02:29:05;17.74;50.88
65985;HTU21D;52748;51.112;5.880;2023-03-03T02:31:31;17.72;50.93
65985;HTU21D;52748;51.112;5.880;2023-03-03T02:33:59;17.72;50.94
65985;HTU21D;52748;51.112;5.880;2023-03-03T02:36:34;17.69;50.92
65985;HTU21D;52748;51.112;5.880;2023-03-03T02:44:24;17.67;50.92
65985;HTU21D;52748;51.112;5.880;2023-03-03T02:46:53;17.68;50.94
65985;HTU21D;52748;51.112;5.880;2023-03-03T02:49:22;17.66;50.95
65985;HTU21D;52748;51.112;5.880;2023-03-03T02:51:49;17.67;50.98
65985;HTU21D;52748;51.112;5.880;2023-03-03T02:54:17;17.67;50.96
65985;HTU21D;52748;51.112;5.880;2023-03-03T02:56:44;17.66;50.95
65985;HTU21D;52748;51.112;5.880;2023-03-03T02:59:11;17.66;50.96
65985;HTU21D;52748;51.112;5.880;2023-03-03T03:01:42;17.65;50.94
65985;HTU21D;52748;51.112;5.880;2023-03-03T03:04:15;17.65;50.92
65985;HTU21D;52748;51.112;5.880;2023-03-03T03:06:45;17.65;50.92
65985;HTU21D;52748;51.112;5.880;2023-03-03T03:09:14;17.64;50.82
65985;HTU21D;52748;51.112;5.880;2023-03-03T03:11:40;17.63;50.83
65985;HTU21D;52748;51.112;5.880;2023-03-03T03:14:10;17.62;50.82
65985;HTU21D;52748;51.112;5.880;2023-03-03T03:16:37;17.62;50.82
65985;HTU21D;52748;51.112;5.880;2023-03-03T03:19:04;17.61;50.83
65985;HTU21D;52748;51.112;5.880;2023-03-03T03:21:31;17.61;50.78
65985;HTU21D;52748;51.112;5.880;2023-03-03T03:23:58;17.60;50.77
65985;HTU21D;52748;51.112;5.880;2023-03-03T03:26:25;17.59;50.74
65985;HTU21D;52748;51.112;5.880;2023-03-03T03:28:51;17.59;50.70
65985;HTU21D;52748;51.112;5.880;2023-03-03T03:31:18;17.58;50.68
65985;HTU21D;52748;51.112;5.880;2023-03-03T03:33:45;17.58;50.66
65985;HTU21D;52748;51.112;5.880;2023-03-03T03:36:12;17.56;50.64
65985;HTU21D;52748;51.112;5.880;2023-03-03T03:38:38;17.56;50.61
65985;HTU21D;52748;51.112;5.880;2023-03-03T03:41:06;17.56;50.61
65985;HTU21D;52748;51.112;5.880;2023-03-03T03:43:33;17.58;50.62
65985;HTU21D;52748;51.112;5.880;2023-03-03T03:46:00;17.54;50.58
65985;HTU21D;52748;51.112;5.880;2023-03-03T03:48:26;17.55;50.85
65985;HTU21D;52748;51.112;5.880;2023-03-03T03:50:53;17.55;50.76
65985;HTU21D;52748;51.112;5.880;2023-03-03T03:53:20;17.53;50.70
65985;HTU21D;52748;51.112;5.880;2023-03-03T03:55:46;17.53;50.68
65985;HTU21D;52748;51.112;5.880;2023-03-03T03:58:14;17.54;50.67
65985;HTU21D;52748;51.112;5.880;2023-03-03T04:00:42;17.53;50.61
65985;HTU21D;52748;51.112;5.880;2023-03-03T04:03:09;17.53;50.63
65985;HTU21D;52748;51.112;5.880;2023-03-03T04:05:36;17.51;50.66
65985;HTU21D;52748;51.112;5.880;2023-03-03T04:08:03;17.52;50.67
65985;HTU21D;52748;51.112;5.880;2023-03-03T04:10:29;17.51;50.66
65985;HTU21D;52748;51.112;5.880;2023-03-03T04:12:56;17.50;50.64
65985;HTU21D;52748;51.112;5.880;2023-03-03T04:15:23;17.50;50.65
65985;HTU21D;52748;51.112;5.880;2023-03-03T04:17:49;17.49;50.63
65985;HTU21D;52748;51.112;5.880;2023-03-03T04:20:15;17.48;50.65
65985;HTU21D;52748;51.112;5.880;2023-03-03T04:22:43;17.50;50.67
65985;HTU21D;52748;51.112;5.880;2023-03-03T04:25:14;17.51;50.51
65985;HTU21D;52748;51.112;5.880;2023-03-03T04:27:41;17.51;50.50
65985;HTU21D;52748;51.112;5.880;2023-03-03T04:30:09;17.49;50.55
65985;HTU21D;52748;51.112;5.880;2023-03-03T04:32:36;17.48;50.60
65985;HTU21D;52748;51.112;5.880;2023-03-03T04:35:07;17.47;50.63
65985;HTU21D;52748;51.112;5.880;2023-03-03T04:37:33;17.46;50.67
65985;HTU21D;52748;51.112;5.880;2023-03-03T04:39:59;17.45;50.72
65985;HTU21D;52748;51.112;5.880;2023-03-03T04:42:25;17.44;50.76
65985;HTU21D;52748;51.112;5.880;2023-03-03T04:44:53;17.44;50.77
65985;HTU21D;52748;51.112;5.880;2023-03-03T04:47:19;17.44;50.76
65985;HTU21D;52748;51.112;5.880;2023-03-03T04:49:44;17.43;50.74
65985;HTU21D;52748;51.112;5.880;2023-03-03T04:52:10;17.43;50.73
65985;HTU21D;52748;51.112;5.880;2023-03-03T04:54:37;17.43;50.71
65985;HTU21D;52748;51.112;5.880;2023-03-03T04:57:03;17.40;50.71
65985;HTU21D;52748;51.112;5.880;2023-03-03T04:59:29;17.41;50.66
65985;HTU21D;52748;51.112;5.880;2023-03-03T05:01:54;17.41;50.64
65985;HTU21D;52748;51.112;5.880;2023-03-03T05:04:21;17.44;50.53
65985;HTU21D;52748;51.112;5.880;2023-03-03T05:06:47;17.44;50.43
65985;HTU21D;52748;51.112;5.880;2023-03-03T05:09:12;17.41;50.43
65985;HTU21D;52748;51.112;5.880;2023-03-03T05:11:38;17.39;50.51
65985;HTU21D;52748;51.112;5.880;2023-03-03T05:14:04;17.39;50.58
65985;HTU21D;52748;51.112;5.880;2023-03-03T05:16:29;17.38;50.61
65985;HTU21D;52748;51.112;5.880;2023-03-03T05:18:55;17.37;50.65
65985;HTU21D;52748;51.112;5.880;2023-03-03T05:21:21;17.36;50.68
65985;HTU21D;52748;51.112;5.880;2023-03-03T05:23:47;17.36;50.70
65985;HTU21D;52748;51.112;5.880;2023-03-03T05:26:13;17.36;50.73
65985;HTU21D;52748;51.112;5.880;2023-03-03T05:28:39;17.36;50.72
65985;HTU21D;52748;51.112;5.880;2023-03-03T05:31:05;17.40;50.58
65985;HTU21D;52748;51.112;5.880;2023-03-03T05:33:31;17.41;50.47
65985;HTU21D;52748;51.112;5.880;2023-03-03T05:35:56;17.39;50.49
65985;HTU21D;52748;51.112;5.880;2023-03-03T05:38:23;17.36;50.56
65985;HTU21D;52748;51.112;5.880;2023-03-03T05:40:50;17.35;50.63
65985;HTU21D;52748;51.112;5.880;2023-03-03T05:43:16;17.34;50.66
65985;HTU21D;52748;51.112;5.880;2023-03-03T05:45:42;17.34;50.72
65985;HTU21D;52748;51.112;5.880;2023-03-03T05:48:07;17.33;50.72
65985;HTU21D;52748;51.112;5.880;2023-03-03T05:50:36;17.33;50.69
65985;HTU21D;52748;51.112;5.880;2023-03-03T05:53:03;17.31;50.69
65985;HTU21D;52748;51.112;5.880;2023-03-03T05:55:29;17.32;50.72
65985;HTU21D;52748;51.112;5.880;2023-03-03T05:57:55;17.32;50.69
65985;HTU21D;52748;51.112;5.880;2023-03-03T06:00:21;17.34;50.77
65985;HTU21D;52748;51.112;5.880;2023-03-03T06:02:47;17.33;50.81
65985;HTU21D;52748;51.112;5.880;2023-03-03T06:05:12;17.36;50.84
65985;HTU21D;52748;51.112;5.880;2023-03-03T06:07:38;17.37;51.18
65985;HTU21D;52748;51.112;5.880;2023-03-03T06:10:05;17.39;51.40
65985;HTU21D;52748;51.112;5.880;2023-03-03T06:12:34;17.44;51.99
65985;HTU21D;52748;51.112;5.880;2023-03-03T06:15:00;17.50;52.70
65985;HTU21D;52748;51.112;5.880;2023-03-03T06:17:26;17.56;52.90
65985;HTU21D;52748;51.112;5.880;2023-03-03T06:19:52;17.62;52.91
65985;HTU21D;52748;51.112;5.880;2023-03-03T06:22:17;17.66;52.78
65985;HTU21D;52748;51.112;5.880;2023-03-03T06:24:43;17.73;52.73
65985;HTU21D;52748;51.112;5.880;2023-03-03T06:27:09;17.78;52.65
65985;HTU21D;52748;51.112;5.880;2023-03-03T06:29:35;17.82;52.44
65985;HTU21D;52748;51.112;5.880;2023-03-03T06:32:01;17.84;51.43
65985;HTU21D;52748;51.112;5.880;2023-03-03T06:34:26;17.79;51.24
65985;HTU21D;52748;51.112;5.880;2023-03-03T06:36:52;17.78;51.68
65985;HTU21D;52748;51.112;5.880;2023-03-03T06:39:18;17.82;52.88
65985;HTU21D;52748;51.112;5.880;2023-03-03T06:41:44;17.85;53.23
65985;HTU21D;52748;51.112;5.880;2023-03-03T06:44:10;17.89;53.02
65985;HTU21D;52748;51.112;5.880;2023-03-03T06:46:36;17.91;52.71
65985;HTU21D;52748;51.112;5.880;2023-03-03T06:49:02;17.91;52.22
65985;HTU21D;52748;51.112;5.880;2023-03-03T06:51:35;17.92;51.82
65985;HTU21D;52748;51.112;5.880;2023-03-03T06:54:12;17.93;51.45
65985;HTU21D;52748;51.112;5.880;2023-03-03T06:56:39;17.94;51.15
65985;HTU21D;52748;51.112;5.880;2023-03-03T07:01:37;17.93;50.54
65985;HTU21D;52748;51.112;5.880;2023-03-03T07:04:21;17.93;50.38
65985;HTU21D;52748;51.112;5.880;2023-03-03T07:06:50;17.97;50.64
65985;HTU21D;52748;51.112;5.880;2023-03-03T07:09:24;17.89;46.73
65985;HTU21D;52748;51.112;5.880;2023-03-03T07:12:01;17.75;49.82
65985;HTU21D;52748;51.112;5.880;2023-03-03T07:14:28;17.79;52.00
65985;HTU21D;52748;51.112;5.880;2023-03-03T07:16:59;17.84;52.62
65985;HTU21D;52748;51.112;5.880;2023-03-03T07:19:33;17.88;52.60
65985;HTU21D;52748;51.112;5.880;2023-03-03T07:22:18;17.90;52.61
65985;HTU21D;52748;51.112;5.880;2023-03-03T07:24:46;17.90;52.78
65985;HTU21D;52748;51.112;5.880;2023-03-03T07:27:23;17.92;52.88
65985;HTU21D;52748;51.112;5.880;2023-03-03T07:29:53;17.94;52.62
65985;HTU21D;52748;51.112;5.880;2023-03-03T07:32:30;17.95;52.43
65985;HTU21D;52748;51.112;5.880;2023-03-03T07:35:02;17.95;52.38
65985;HTU21D;52748;51.112;5.880;2023-03-03T07:37:36;17.95;52.07
65985;HTU21D;52748;51.112;5.880;2023-03-03T07:40:29;17.95;51.96
65985;HTU21D;52748;51.112;5.880;2023-03-03T07:42:58;17.94;51.53
65985;HTU21D;52748;51.112;5.880;2023-03-03T07:45:36;17.93;51.43
65985;HTU21D;52748;51.112;5.880;2023-03-03T07:50:39;17.97;52.26
65985;HTU21D;52748;51.112;5.880;2023-03-03T07:53:25;17.98;51.97
65985;HTU21D;52748;51.112;5.880;2023-03-03T07:55:51;18.03;52.29
65985;HTU21D;52748;51.112;5.880;2023-03-03T07:58:23;18.13;52.65
65985;HTU21D;52748;51.112;5.880;2023-03-03T08:03:44;18.28;52.84
65985;HTU21D;52748;51.112;5.880;2023-03-03T08:09:36;18.47;53.01
65985;HTU21D;52748;51.112;5.880;2023-03-03T08:14:36;18.59;53.02
65985;HTU21D;52748;51.112;5.880;2023-03-03T08:17:35;18.63;52.66
65985;HTU21D;52748;51.112;5.880;2023-03-03T08:20:54;18.62;52.80
65985;HTU21D;52748;51.112;5.880;2023-03-03T08:22:54;18.66;53.02
65985;HTU21D;52748;51.112;5.880;2023-03-03T08:25:20;18.68;52.96
65985;HTU21D;52748;51.112;5.880;2023-03-03T08:27:45;18.72;52.82
65985;HTU21D;52748;51.112;5.880;2023-03-03T08:30:11;18.76;52.72
65985;HTU21D;52748;51.112;5.880;2023-03-03T08:32:37;18.79;52.63
65985;HTU21D;52748;51.112;5.880;2023-03-03T08:35:03;18.81;52.41
65985;HTU21D;52748;51.112;5.880;2023-03-03T08:37:29;18.81;52.30
65985;HTU21D;52748;51.112;5.880;2023-03-03T08:39:55;18.79;52.49
65985;HTU21D;52748;51.112;5.880;2023-03-03T08:42:20;18.83;52.73
65985;HTU21D;52748;51.112;5.880;2023-03-03T08:44:46;18.88;52.63
65985;HTU21D;52748;51.112;5.880;2023-03-03T08:47:12;18.94;52.48
65985;HTU21D;52748;51.112;5.880;2023-03-03T08:49:38;18.93;52.79
65985;HTU21D;52748;51.112;5.880;2023-03-03T08:52:04;18.94;53.27
65985;HTU21D;52748;51.112;5.880;2023-03-03T08:54:30;18.94;53.72
65985;HTU21D;52748;51.112;5.880;2023-03-03T08:56:56;18.95;54.10
65985;HTU21D;52748;51.112;5.880;2023-03-03T08:59:22;18.96;54.34
65985;HTU21D;52748;51.112;5.880;2023-03-03T09:01:48;18.96;54.52
65985;HTU21D;52748;51.112;5.880;2023-03-03T09:04:13;18.97;54.60
65985;HTU21D;52748;51.112;5.880;2023-03-03T09:06:39;19.00;54.62
65985;HTU21D;52748;51.112;5.880;2023-03-03T09:09:05;19.00;54.71
65985;HTU21D;52748;51.112;5.880;2023-03-03T09:11:32;19.01;54.76
65985;HTU21D;52748;51.112;5.880;2023-03-03T09:14:11;19.02;54.83
65985;HTU21D;52748;51.112;5.880;2023-03-03T09:16:43;19.03;54.85
65985;HTU21D;52748;51.112;5.880;2023-03-03T09:19:31;19.06;54.86
65985;HTU21D;52748;51.112;5.880;2023-03-03T09:22:18;19.08;54.87
65985;HTU21D;52748;51.112;5.880;2023-03-03T09:24:46;19.08;54.87
65985;HTU21D;52748;51.112;5.880;2023-03-03T09:27:24;19.08;54.91
65985;HTU21D;52748;51.112;5.880;2023-03-03T09:29:51;19.11;54.94
65985;HTU21D;52748;51.112;5.880;2023-03-03T09:32:32;19.12;54.98
65985;HTU21D;52748;51.112;5.880;2023-03-03T09:35:22;19.13;55.00
65985;HTU21D;52748;51.112;5.880;2023-03-03T09:37:50;19.16;55.15
65985;HTU21D;52748;51.112;5.880;2023-03-03T09:49:37;19.25;55.23
65985;HTU21D;52748;51.112;5.880;2023-03-03T09:52:21;19.26;55.23
65985;HTU21D;52748;51.112;5.880;2023-03-03T09:55:25;19.28;55.34
65985;HTU21D;52748;51.112;5.880;2023-03-03T10:11:41;19.60;56.15
65985;HTU21D;52748;51.112;5.880;2023-03-03T10:19:51;19.81;55.71
65985;HTU21D;52748;51.112;5.880;2023-03-03T10:25:17;19.79;56.01
65985;HTU21D;52748;51.112;5.880;2023-03-03T10:27:50;19.76;56.04
65985;HTU21D;52748;51.112;5.880;2023-03-03T10:33:48;19.82;55.79
65985;HTU21D;52748;51.112;5.880;2023-03-03T10:39:24;19.81;55.95
65985;HTU21D;52748;51.112;5.880;2023-03-03T10:42:00;19.80;55.98
65985;HTU21D;52748;51.112;5.880;2023-03-03T10:47:11;19.77;55.77
65985;HTU21D;52748;51.112;5.880;2023-03-03T10:52:30;19.82;55.18
65985;HTU21D;52748;51.112;5.880;2023-03-03T11:00:32;19.81;55.47
65985;HTU21D;52748;51.112;5.880;2023-03-03T11:06:28;19.90;55.52
65985;HTU21D;52748;51.112;5.880;2023-03-03T11:09:09;19.90;55.59
65985;HTU21D;52748;51.112;5.880;2023-03-03T11:28:25;20.01;55.04
65985;HTU21D;52748;51.112;5.880;2023-03-03T11:34:09;19.97;54.92
65985;HTU21D;52748;51.112;5.880;2023-03-03T11:37:18;19.99;54.87
65985;HTU21D;52748;51.112;5.880;2023-03-03T11:39:17;19.99;54.79
65985;HTU21D;52748;51.112;5.880;2023-03-03T11:44:39;19.99;54.68
65985;HTU21D;52748;51.112;5.880;2023-03-03T11:50:03;19.98;54.58
65985;HTU21D;52748;51.112;5.880;2023-03-03T11:52:50;19.98;54.52
65985;HTU21D;52748;51.112;5.880;2023-03-03T11:55:37;19.97;54.27
65985;HTU21D;52748;51.112;5.880;2023-03-03T11:58:17;19.96;54.04
65985;HTU21D;52748;51.112;5.880;2023-03-03T12:03:30;19.82;53.88
65985;HTU21D;52748;51.112;5.880;2023-03-03T12:09:21;19.73;53.47
65985;HTU21D;52748;51.112;5.880;2023-03-03T12:29:12;19.52;53.32
65985;HTU21D;52748;51.112;5.880;2023-03-03T12:32:01;19.50;53.35
65985;HTU21D;52748;51.112;5.880;2023-03-03T12:34:32;19.47;53.31
65985;HTU21D;52748;51.112;5.880;2023-03-03T12:37:21;19.46;53.30
65985;HTU21D;52748;51.112;5.880;2023-03-03T12:40:10;19.45;53.30
65985;HTU21D;52748;51.112;5.880;2023-03-03T12:42:56;19.45;53.28
65985;HTU21D;52748;51.112;5.880;2023-03-03T12:45:45;19.52;53.49
65985;HTU21D;52748;51.112;5.880;2023-03-03T12:48:27;19.55;54.58
65985;HTU21D;52748;51.112;5.880;2023-03-03T12:56:23;19.68;55.43
65985;HTU21D;52748;51.112;5.880;2023-03-03T12:59:14;19.70;55.63
65985;HTU21D;52748;51.112;5.880;2023-03-03T13:01:57;19.72;55.74
65985;HTU21D;52748;51.112;5.880;2023-03-03T13:04:32;19.71;55.68
65985;HTU21D;52748;51.112;5.880;2023-03-03T13:07:16;19.72;55.65
65985;HTU21D;52748;51.112;5.880;2023-03-03T13:10:10;19.71;55.72
65985;HTU21D;52748;51.112;5.880;2023-03-03T13:12:43;19.68;55.42
65985;HTU21D;52748;51.112;5.880;2023-03-03T13:15:24;19.67;55.36
65985;HTU21D;52748;51.112;5.880;2023-03-03T13:21:07;19.68;55.52
65985;HTU21D;52748;51.112;5.880;2023-03-03T13:27:03;19.69;56.19
65985;HTU21D;52748;51.112;5.880;2023-03-03T13:29:41;19.70;56.07
65985;HTU21D;52748;51.112;5.880;2023-03-03T13:32:26;19.69;55.84
65985;HTU21D;52748;51.112;5.880;2023-03-03T13:35:06;19.66;55.57
65985;HTU21D;52748;51.112;5.880;2023-03-03T13:37:51;19.65;55.31
65985;HTU21D;52748;51.112;5.880;2023-03-03T13:40:23;19.63;55.05
65985;HTU21D;52748;51.112;5.880;2023-03-03T13:43:20;19.61;54.77
65985;HTU21D;52748;51.112;5.880;2023-03-03T13:45:53;19.60;54.56
65985;HTU21D;52748;51.112;5.880;2023-03-03T13:48:36;19.60;54.43
65985;HTU21D;52748;51.112;5.880;2023-03-03T13:56:34;19.61;55.81
65985;HTU21D;52748;51.112;5.880;2023-03-03T13:59:17;19.68;56.44
65985;HTU21D;52748;51.112;5.880;2023-03-03T14:02:02;19.73;56.77
65985;HTU21D;52748;51.112;5.880;2023-03-03T14:04:39;19.77;56.70
65985;HTU21D;52748;51.112;5.880;2023-03-03T14:07:18;19.80;56.43
65985;HTU21D;52748;51.112;5.880;2023-03-03T14:10:07;19.77;56.26
65985;HTU21D;52748;51.112;5.880;2023-03-03T14:18:13;19.71;55.49
65985;HTU21D;52748;51.112;5.880;2023-03-03T14:21:08;19.71;55.20
65985;HTU21D;52748;51.112;5.880;2023-03-03T14:24:03;19.68;54.96
65985;HTU21D;52748;51.112;5.880;2023-03-03T14:26:29;19.67;54.78
65985;HTU21D;52748;51.112;5.880;2023-03-03T14:31:54;19.63;54.39
65985;HTU21D;52748;51.112;5.880;2023-03-03T14:37:25;19.62;54.19
65985;HTU21D;52748;51.112;5.880;2023-03-03T14:40:21;19.63;55.45
65985;HTU21D;52748;51.112;5.880;2023-03-03T14:42:57;19.65;56.84
65985;HTU21D;52748;51.112;5.880;2023-03-03T14:45:38;19.68;56.99
65985;HTU21D;52748;51.112;5.880;2023-03-03T14:51:25;19.68;56.17
65985;HTU21D;52748;51.112;5.880;2023-03-03T14:53:55;19.67;55.74
65985;HTU21D;52748;51.112;5.880;2023-03-03T14:56:33;19.68;55.36
65985;HTU21D;52748;51.112;5.880;2023-03-03T14:59:19;19.68;55.15
65985;HTU21D;52748;51.112;5.880;2023-03-03T15:01:46;19.67;54.92
65985;HTU21D;52748;51.112;5.880;2023-03-03T15:04:22;19.65;54.78
65985;HTU21D;52748;51.112;5.880;2023-03-03T15:06:52;19.67;54.71
65985;HTU21D;52748;51.112;5.880;2023-03-03T15:09:32;19.69;54.60
65985;HTU21D;52748;51.112;5.880;2023-03-03T15:12:20;19.71;54.45
65985;HTU21D;52748;51.112;5.880;2023-03-03T15:14:50;19.68;54.49
65985;HTU21D;52748;51.112;5.880;2023-03-03T15:17:25;19.66;54.43
65985;HTU21D;52748;51.112;5.880;2023-03-03T15:25:35;19.67;54.21
65985;HTU21D;52748;51.112;5.880;2023-03-03T15:33:46;19.66;54.16
65985;HTU21D;52748;51.112;5.880;2023-03-03T15:36:34;19.62;54.26
65985;HTU21D;52748;51.112;5.880;2023-03-03T15:39:35;19.62;54.21
65985;HTU21D;52748;51.112;5.880;2023-03-03T15:42:12;19.62;54.30
65985;HTU21D;52748;51.112;5.880;2023-03-03T16:02:20;19.70;58.16
65985;HTU21D;52748;51.112;5.880;2023-03-03T16:04:26;19.67;56.77
65985;HTU21D;52748;51.112;5.880;2023-03-03T16:15:31;19.55;55.33
65985;HTU21D;52748;51.112;5.880;2023-03-03T16:18:35;19.54;55.71
65985;HTU21D;52748;51.112;5.880;2023-03-03T16:29:30;19.45;54.54
65985;HTU21D;52748;51.112;5.880;2023-03-03T16:34:53;19.46;56.58
65985;HTU21D;52748;51.112;5.880;2023-03-03T16:37:41;19.51;57.22
65985;HTU21D;52748;51.112;5.880;2023-03-03T16:40:45;19.51;57.55
65985;HTU21D;52748;51.112;5.880;2023-03-03T16:43:35;19.51;57.74
65985;HTU21D;52748;51.112;5.880;2023-03-03T16:49:02;19.52;60.15
65985;HTU21D;52748;51.112;5.880;2023-03-03T16:54:34;19.62;65.78
65985;HTU21D;52748;51.112;5.880;2023-03-03T17:00:05;19.67;66.39
65985;HTU21D;52748;51.112;5.880;2023-03-03T17:14:05;19.74;69.88
65985;HTU21D;52748;51.112;5.880;2023-03-03T17:16:59;19.81;72.62
65985;HTU21D;52748;51.112;5.880;2023-03-03T17:19:46;19.86;73.64
65985;HTU21D;52748;51.112;5.880;2023-03-03T17:22:18;19.91;73.54
65985;HTU21D;52748;51.112;5.880;2023-03-03T17:25:07;19.94;73.15
65985;HTU21D;52748;51.112;5.880;2023-03-03T17:28:03;19.97;72.40
65985;HTU21D;52748;51.112;5.880;2023-03-03T17:33:38;19.94;71.85
65985;HTU21D;52748;51.112;5.880;2023-03-03T17:44:11;19.81;69.13
65985;HTU21D;52748;51.112;5.880;2023-03-03T17:46:49;19.76;68.54
65985;HTU21D;52748;51.112;5.880;2023-03-03T18:03:17;19.62;65.85
65985;HTU21D;52748;51.112;5.880;2023-03-03T18:21:52;19.23;49.85
65985;HTU21D;52748;51.112;5.880;2023-03-03T18:27:31;19.02;55.08
65985;HTU21D;52748;51.112;5.880;2023-03-03T18:32:47;19.07;54.31
65985;HTU21D;52748;51.112;5.880;2023-03-03T18:35:39;19.06;53.23
65985;HTU21D;52748;51.112;5.880;2023-03-03T18:57:13;19.17;56.66
65985;HTU21D;52748;51.112;5.880;2023-03-03T18:59:55;19.15;56.38
65985;HTU21D;52748;51.112;5.880;2023-03-03T19:02:28;19.22;56.09
65985;HTU21D;52748;51.112;5.880;2023-03-03T19:21:26;19.24;54.92
65985;HTU21D;52748;51.112;5.880;2023-03-03T19:27:07;19.21;54.86
65985;HTU21D;52748;51.112;5.880;2023-03-03T19:29:55;19.20;54.87
65985;HTU21D;52748;51.112;5.880;2023-03-03T19:41:13;19.15;54.70
65985;HTU21D;52748;51.112;5.880;2023-03-03T19:47:15;19.15;54.70
65985;HTU21D;52748;51.112;5.880;2023-03-03T19:54:58;19.11;57.06
65985;HTU21D;52748;51.112;5.880;2023-03-03T20:06:31;19.08;59.77
65985;HTU21D;52748;51.112;5.880;2023-03-03T20:09:20;19.10;59.90
65985;HTU21D;52748;51.112;5.880;2023-03-03T20:14:44;19.10;59.67
65985;HTU21D;52748;51.112;5.880;2023-03-03T20:20:19;19.10;59.17
65985;HTU21D;52748;51.112;5.880;2023-03-03T20:23:16;19.09;58.87
65985;HTU21D;52748;51.112;5.880;2023-03-03T20:25:59;19.09;58.93
65985;HTU21D;52748;51.112;5.880;2023-03-03T20:33:57;19.07;58.53
65985;HTU21D;52748;51.112;5.880;2023-03-03T20:36:55;19.08;59.00
65985;HTU21D;52748;51.112;5.880;2023-03-03T20:40:15;19.08;59.35
65985;HTU21D;52748;51.112;5.880;2023-03-03T20:44:54;19.13;61.15
65985;HTU21D;52748;51.112;5.880;2023-03-03T20:51:18;19.09;62.66
65985;HTU21D;52748;51.112;5.880;2023-03-03T20:59:00;19.12;63.61
65985;HTU21D;52748;51.112;5.880;2023-03-03T21:01:35;19.12;63.37
65985;HTU21D;52748;51.112;5.880;2023-03-03T21:04:26;19.13;63.48
65985;HTU21D;52748;51.112;5.880;2023-03-03T21:06:54;19.10;63.64
65985;HTU21D;52748;51.112;5.880;2023-03-03T21:09:32;19.08;64.00
65985;HTU21D;52748;51.112;5.880;2023-03-03T21:12:01;19.09;64.05
65985;HTU21D;52748;51.112;5.880;2023-03-03T21:14:30;19.06;64.10
65985;HTU21D;52748;51.112;5.880;2023-03-03T21:16:59;19.03;64.34
65985;HTU21D;52748;51.112;5.880;2023-03-03T21:19:32;19.03;64.34
65985;HTU21D;52748;51.112;5.880;2023-03-03T21:22:00;19.03;64.35
65985;HTU21D;52748;51.112;5.880;2023-03-03T21:24:52;19.01;64.45
65985;HTU21D;52748;51.112;5.880;2023-03-03T21:27:30;19.01;64.63
65985;HTU21D;52748;51.112;5.880;2023-03-03T21:30:12;18.99;64.65
65985;HTU21D;52748;51.112;5.880;2023-03-03T21:32:44;19.00;64.43
65985;HTU21D;52748;51.112;5.880;2023-03-03T21:35:17;19.00;64.61
65985;HTU21D;52748;51.112;5.880;2023-03-03T21:37:50;18.99;64.57
65985;HTU21D;52748;51.112;5.880;2023-03-03T21:40:22;18.99;64.62
65985;HTU21D;52748;51.112;5.880;2023-03-03T21:42:55;18.99;64.66
65985;HTU21D;52748;51.112;5.880;2023-03-03T21:45:21;19.02;64.40
65985;HTU21D;52748;51.112;5.880;2023-03-03T21:47:49;19.05;64.23
65985;HTU21D;52748;51.112;5.880;2023-03-03T21:50:17;19.06;64.06
65985;HTU21D;52748;51.112;5.880;2023-03-03T21:52:47;19.00;64.07
65985;HTU21D;52748;51.112;5.880;2023-03-03T21:55:14;18.99;64.19